createdAt,value
2019-05-29T00:02:18.386Z,13.59
2019-05-29T00:05:22.653Z,13.52
2019-05-29T00:08:26.659Z,13.41
2019-05-29T00:11:30.597Z,13.35
2019-05-29T00:14:34.558Z,13.27
2019-05-29T00:17:38.569Z,13.17
2019-05-29T00:20:42.594Z,13.05
2019-05-29T00:23:46.889Z,12.92
2019-05-29T00:26:50.888Z,12.89
2019-05-29T00:29:55.557Z,12.89
2019-05-29T00:32:59.874Z,12.89
2019-05-29T00:36:04.196Z,12.85
2019-05-29T00:39:08.745Z,12.83
2019-05-29T00:42:13.251Z,12.84
2019-05-29T00:45:19.473Z,12.86
2019-05-29T00:48:23.749Z,12.89
2019-05-29T00:51:27.761Z,12.93
2019-05-29T00:54:32.380Z,12.93
2019-05-29T00:57:36.600Z,12.88
2019-05-29T01:00:40.630Z,12.82
2019-05-29T01:03:44.660Z,12.82
2019-05-29T01:06:49.268Z,12.79
2019-05-29T01:09:53.214Z,12.77
2019-05-29T01:12:57.809Z,12.66
2019-05-29T01:16:01.957Z,12.54
2019-05-29T01:19:23.837Z,12.49
2019-05-29T01:22:27.854Z,12.41
2019-05-29T01:25:31.941Z,12.36
2019-05-29T01:28:36.119Z,12.39
2019-05-29T01:31:40.063Z,12.46
2019-05-29T01:34:44.015Z,12.47
2019-05-29T01:37:48.163Z,12.51
2019-05-29T01:40:52.364Z,12.51
2019-05-29T01:43:56.652Z,12.52
2019-05-29T01:47:01.025Z,12.53
2019-05-29T01:50:05.778Z,12.54
2019-05-29T01:53:10.083Z,12.48
2019-05-29T01:56:15.474Z,12.45
2019-05-29T01:59:20.161Z,12.40
2019-05-29T02:02:24.387Z,12.37
2019-05-29T02:05:28.604Z,12.32
2019-05-29T02:08:32.800Z,12.25
2019-05-29T02:11:37.094Z,12.19
2019-05-29T02:14:41.353Z,12.25
2019-05-29T02:17:45.607Z,12.28
2019-05-29T02:20:49.921Z,12.30
2019-05-29T02:23:54.129Z,12.36
2019-05-29T02:26:58.551Z,12.41
2019-05-29T02:30:02.680Z,12.50
2019-05-29T02:33:06.718Z,12.59
2019-05-29T02:36:11.008Z,12.64
2019-05-29T02:39:15.519Z,12.67
2019-05-29T02:42:20.972Z,12.71
2019-05-29T02:45:49.256Z,12.76
2019-05-29T02:48:31.797Z,12.75
2019-05-29T02:51:35.885Z,12.73
2019-05-29T02:54:39.901Z,12.72
2019-05-29T02:57:44.153Z,12.64
2019-05-29T03:00:52.740Z,12.53
2019-05-29T03:03:57.128Z,12.54
2019-05-29T03:07:01.402Z,12.53
2019-05-29T03:10:06.449Z,12.56
2019-05-29T03:13:10.793Z,12.58
2019-05-29T03:16:15.001Z,12.63
2019-05-29T03:19:19.004Z,12.70
2019-05-29T03:22:24.131Z,12.75
2019-05-29T03:25:28.454Z,12.74
2019-05-29T03:28:34.800Z,12.74
2019-05-29T03:31:46.577Z,12.61
2019-05-29T03:34:46.742Z,12.59
2019-05-29T03:37:50.471Z,12.56
2019-05-29T03:40:54.857Z,12.56
2019-05-29T03:43:58.730Z,12.56
2019-05-29T03:47:02.770Z,12.59
2019-05-29T03:50:07.255Z,12.68
2019-05-29T03:53:11.588Z,12.63
2019-05-29T03:56:16.205Z,12.68
2019-05-29T03:59:20.729Z,12.68
2019-05-29T04:02:24.757Z,12.67
2019-05-29T04:05:29.141Z,12.69
2019-05-29T04:08:35.528Z,12.74
2019-05-29T04:11:40.479Z,12.80
2019-05-29T04:14:44.752Z,12.87
2019-05-29T04:17:49.319Z,12.87
2019-05-29T04:20:53.504Z,12.80
2019-05-29T04:24:00.294Z,12.85
2019-05-29T04:27:05.109Z,12.90
2019-05-29T04:30:09.936Z,12.97
2019-05-29T04:33:13.884Z,13.02
2019-05-29T04:36:18.143Z,13.11
2019-05-29T04:39:22.072Z,13.12
2019-05-29T04:42:26.017Z,13.11
2019-05-29T04:45:30.888Z,13.19
2019-05-29T04:48:36.142Z,13.28
2019-05-29T04:51:40.680Z,13.28
2019-05-29T04:54:44.888Z,13.33
2019-05-29T04:57:50.905Z,13.41
2019-05-29T05:00:59.050Z,13.38
2019-05-29T05:04:01.417Z,13.47
2019-05-29T05:07:05.761Z,13.67
2019-05-29T05:10:10.294Z,13.97
2019-05-29T05:13:14.241Z,14.33
2019-05-29T05:16:18.532Z,14.45
2019-05-29T05:19:22.461Z,14.49
2019-05-29T05:22:26.506Z,14.53
2019-05-29T05:25:34.403Z,14.45
2019-05-29T05:28:38.640Z,14.51
2019-05-29T05:31:43.023Z,14.43
2019-05-29T05:34:47.107Z,14.50
2019-05-29T05:37:51.267Z,14.33
2019-05-29T05:40:55.245Z,14.30
2019-05-29T05:43:59.441Z,14.40
2019-05-29T05:47:03.419Z,14.43
2019-05-29T05:50:07.770Z,14.54
2019-05-29T05:53:11.847Z,14.54
2019-05-29T05:56:15.825Z,14.56
2019-05-29T05:59:19.949Z,14.56
2019-05-29T06:02:24.371Z,14.44
2019-05-29T06:05:28.432Z,14.45
2019-05-29T06:08:33.970Z,14.43
2019-05-29T06:11:38.336Z,14.44
2019-05-29T06:14:42.828Z,14.57
2019-05-29T06:18:10.194Z,14.67
2019-05-29T06:20:53.424Z,14.80
2019-05-29T06:23:57.618Z,14.93
2019-05-29T06:27:01.571Z,15.02
2019-05-29T06:30:06.272Z,15.17
2019-05-29T06:33:10.693Z,15.46
2019-05-29T06:36:15.140Z,15.71
2019-05-29T06:39:19.178Z,16.01
2019-05-29T06:42:23.712Z,16.18
2019-05-29T06:45:32.291Z,16.33
2019-05-29T06:48:44.828Z,16.44
2019-05-29T06:51:43.461Z,16.41
2019-05-29T06:54:48.205Z,16.38
2019-05-29T06:57:52.172Z,16.29
2019-05-29T07:00:56.565Z,16.32
2019-05-29T07:04:11.416Z,15.95
2019-05-29T07:07:06.575Z,15.86
2019-05-29T07:10:11.153Z,15.71
2019-05-29T07:13:15.670Z,15.37
2019-05-29T07:16:19.929Z,15.38
2019-05-29T07:19:32.773Z,15.30
2019-05-29T07:22:29.889Z,15.23
2019-05-29T07:25:34.120Z,15.17
2019-05-29T07:28:55.482Z,15.15
2019-05-29T07:31:45.035Z,15.18
2019-05-29T07:35:01.886Z,15.17
2019-05-29T07:37:55.091Z,15.13
2019-05-29T07:40:59.034Z,15.09
2019-05-29T07:44:03.733Z,15.00
2019-05-29T07:47:09.989Z,14.99
2019-05-29T07:50:13.757Z,15.06
2019-05-29T07:53:17.877Z,15.15
2019-05-29T07:56:23.299Z,15.19
2019-05-29T07:59:28.693Z,15.10
2019-05-29T08:02:33.189Z,15.12
2019-05-29T08:05:37.183Z,15.30
2019-05-29T08:08:41.588Z,15.55
2019-05-29T08:11:45.720Z,15.81
2019-05-29T08:14:50.274Z,16.12
2019-05-29T08:17:54.871Z,16.35
2019-05-29T08:20:58.950Z,16.39
2019-05-29T08:24:02.930Z,16.35
2019-05-29T08:27:07.002Z,16.14
2019-05-29T08:30:11.423Z,15.84
2019-05-29T08:33:15.428Z,15.62
2019-05-29T08:36:19.777Z,15.48
2019-05-29T08:39:35.361Z,15.36
2019-05-29T08:42:29.645Z,15.17
2019-05-29T08:45:33.671Z,15.07
2019-05-29T08:48:38.275Z,14.96
2019-05-29T08:51:43.891Z,14.58
2019-05-29T08:54:48.110Z,14.38
2019-05-29T08:57:52.529Z,14.49
2019-05-29T09:00:56.545Z,14.71
2019-05-29T09:04:01.145Z,15.07
2019-05-29T09:07:05.178Z,15.51
2019-05-29T09:10:10.171Z,15.96
2019-05-29T09:13:14.443Z,16.47
2019-05-29T09:16:18.741Z,16.78
2019-05-29T09:19:22.885Z,16.94
2019-05-29T09:22:26.876Z,16.99
2019-05-29T09:25:31.630Z,17.03
2019-05-29T09:28:35.653Z,16.80
2019-05-29T09:31:39.939Z,16.60
2019-05-29T09:34:47.582Z,16.47
2019-05-29T09:37:50.333Z,16.40
2019-05-29T09:40:54.703Z,16.30
2019-05-29T09:44:00.372Z,16.10
2019-05-29T09:47:04.709Z,15.82
2019-05-29T09:50:08.741Z,15.77
2019-05-29T09:53:12.949Z,15.66
2019-05-29T09:56:17.045Z,15.54
2019-05-29T09:59:20.973Z,15.43
2019-05-29T10:02:25.238Z,15.40
2019-05-29T10:05:29.251Z,15.47
2019-05-29T10:08:33.270Z,15.62
2019-05-29T10:11:37.433Z,15.70
2019-05-29T10:14:41.792Z,15.69
2019-05-29T10:17:46.423Z,15.27
2019-05-29T10:20:50.695Z,15.48
2019-05-29T10:23:56.665Z,15.68
2019-05-29T10:27:02.708Z,15.97
2019-05-29T10:30:07.630Z,16.33
2019-05-29T10:33:11.821Z,16.67
2019-05-29T10:36:16.253Z,16.78
2019-05-29T10:39:20.234Z,17.06
2019-05-29T10:42:24.595Z,17.37
2019-05-29T10:45:29.035Z,17.72
2019-05-29T10:48:33.069Z,18.15
2019-05-29T10:51:37.764Z,18.28
2019-05-29T10:54:41.733Z,18.28
2019-05-29T10:57:46.635Z,18.41
2019-05-29T11:00:51.352Z,18.59
2019-05-29T11:03:55.908Z,18.93
2019-05-29T11:07:00.618Z,19.25
2019-05-29T11:10:05.359Z,19.83
2019-05-29T11:13:09.435Z,19.83
2019-05-29T11:16:13.617Z,20.09
2019-05-29T11:19:17.980Z,19.83
2019-05-29T11:22:26.102Z,19.87
2019-05-29T11:25:28.685Z,19.87
2019-05-29T11:28:32.625Z,20.20
2019-05-29T11:31:36.641Z,20.36
2019-05-29T11:34:40.512Z,20.48
2019-05-29T11:37:44.780Z,20.70
2019-05-29T11:40:52.289Z,21.11
2019-05-29T11:43:54.931Z,21.50
2019-05-29T11:47:00.697Z,21.93
2019-05-29T11:50:18.609Z,22.34
2019-05-29T11:53:12.529Z,22.52
2019-05-29T11:56:16.806Z,22.62
2019-05-29T11:59:20.885Z,22.54
2019-05-29T12:02:25.209Z,22.29
2019-05-29T12:05:29.641Z,22.07
2019-05-29T12:08:34.025Z,21.48
2019-05-29T12:11:38.467Z,20.63
2019-05-29T12:14:58.805Z,19.82
2019-05-29T12:17:48.570Z,18.23
2019-05-29T12:20:53.963Z,15.72
2019-05-29T12:23:58.540Z,14.58
2019-05-29T12:27:02.869Z,13.97
2019-05-29T12:30:08.278Z,13.58
2019-05-29T12:33:12.206Z,13.58
2019-05-29T12:36:17.082Z,13.66
2019-05-29T12:39:21.168Z,13.79
2019-05-29T12:42:25.124Z,13.75
2019-05-29T12:45:29.155Z,13.99
2019-05-29T12:48:33.192Z,14.20
2019-05-29T12:51:37.245Z,14.35
2019-05-29T12:54:41.282Z,14.58
2019-05-29T12:57:45.908Z,14.88
2019-05-29T13:00:50.252Z,15.07
2019-05-29T13:03:54.273Z,15.10
2019-05-29T13:06:58.927Z,15.26
2019-05-29T13:10:02.961Z,15.22
2019-05-29T13:13:11.047Z,15.31
2019-05-29T13:16:13.743Z,15.62
2019-05-29T13:19:18.067Z,15.83
2019-05-29T13:22:22.407Z,15.87
2019-05-29T13:25:26.399Z,15.74
2019-05-29T13:28:30.408Z,15.75
2019-05-29T13:31:35.046Z,15.83
2019-05-29T13:34:39.925Z,15.94
2019-05-29T13:37:43.955Z,16.20
2019-05-29T13:40:47.948Z,16.37
2019-05-29T13:43:51.965Z,16.29
2019-05-29T13:46:55.913Z,16.31
2019-05-29T13:50:05.492Z,16.23
2019-05-29T13:53:07.445Z,16.31
2019-05-29T13:56:11.881Z,16.50
2019-05-29T13:59:16.200Z,16.70
2019-05-29T14:02:21.160Z,16.82
2019-05-29T14:05:25.432Z,16.81
2019-05-29T14:08:29.535Z,16.79
2019-05-29T14:11:33.828Z,16.73
2019-05-29T14:14:37.864Z,16.71
2019-05-29T14:17:42.237Z,16.62
2019-05-29T14:20:46.361Z,16.61
2019-05-29T14:23:50.680Z,16.44
2019-05-29T14:26:54.719Z,16.40
2019-05-29T14:30:01.003Z,16.40
2019-05-29T14:33:06.819Z,16.49
2019-05-29T14:36:11.492Z,16.67
2019-05-29T14:39:15.562Z,16.80
2019-05-29T14:42:19.593Z,17.04
2019-05-29T14:45:23.879Z,17.23
2019-05-29T14:48:28.184Z,17.37
2019-05-29T14:51:32.430Z,17.65
2019-05-29T14:54:41.962Z,17.84
2019-05-29T14:57:42.988Z,18.06
2019-05-29T15:00:46.987Z,18.14
2019-05-29T15:03:51.883Z,18.32
2019-05-29T15:06:55.790Z,17.97
2019-05-29T15:10:00.055Z,17.97
2019-05-29T15:13:04.421Z,17.92
2019-05-29T15:16:09.118Z,18.38
2019-05-29T15:19:13.355Z,18.77
2019-05-29T15:22:17.230Z,18.87
2019-05-29T15:25:24.438Z,19.00
2019-05-29T15:28:27.707Z,18.90
2019-05-29T15:31:31.776Z,18.88
2019-05-29T15:34:36.150Z,18.82
2019-05-29T15:37:40.226Z,18.82
2019-05-29T15:40:44.549Z,18.70
2019-05-29T15:43:49.387Z,18.48
2019-05-29T15:46:53.772Z,18.27
2019-05-29T15:49:57.775Z,18.06
2019-05-29T15:53:02.133Z,18.09
2019-05-29T15:56:18.294Z,18.07
2019-05-29T15:59:14.227Z,18.03
2019-05-29T16:02:18.188Z,18.11
2019-05-29T16:05:22.394Z,18.23
2019-05-29T16:08:26.477Z,18.35
2019-05-29T16:11:30.720Z,18.38
2019-05-29T16:14:34.680Z,18.42
2019-05-29T16:17:39.112Z,18.44
2019-05-29T16:20:43.278Z,18.51
2019-05-29T16:23:47.556Z,18.54
2019-05-29T16:26:51.607Z,18.55
2019-05-29T16:29:56.115Z,18.54
2019-05-29T16:33:00.131Z,18.61
2019-05-29T16:36:04.559Z,18.66
2019-05-29T16:39:08.774Z,18.66
2019-05-29T16:42:13.968Z,18.79
2019-05-29T16:45:18.765Z,18.88
2019-05-29T16:48:23.019Z,18.39
2019-05-29T16:51:27.690Z,18.39
2019-05-29T16:54:31.726Z,18.29
2019-05-29T16:57:36.024Z,18.02
2019-05-29T17:00:40.445Z,17.86
2019-05-29T17:03:45.028Z,17.76
2019-05-29T17:06:49.302Z,17.62
2019-05-29T17:09:53.358Z,17.44
2019-05-29T17:12:58.050Z,17.27
2019-05-29T17:16:02.162Z,17.22
2019-05-29T17:19:06.267Z,17.20
2019-05-29T17:22:11.035Z,17.08
2019-05-29T17:25:16.819Z,17.10
2019-05-29T17:28:24.303Z,17.00
2019-05-29T17:31:27.377Z,16.93
2019-05-29T17:34:31.757Z,16.85
2019-05-29T17:37:35.993Z,16.82
2019-05-29T17:40:40.020Z,16.80
2019-05-29T17:43:44.350Z,16.81
2019-05-29T17:46:48.747Z,16.79
2019-05-29T17:49:52.692Z,16.74
2019-05-29T17:52:57.011Z,16.64
2019-05-29T17:56:01.042Z,16.56
2019-05-29T17:59:05.247Z,16.49
2019-05-29T18:02:09.893Z,16.37
2019-05-29T18:05:16.388Z,16.15
2019-05-29T18:08:20.777Z,15.81
2019-05-29T18:11:25.280Z,15.63
2019-05-29T18:14:29.480Z,15.45
2019-05-29T18:17:33.774Z,15.22
2019-05-29T18:20:37.905Z,15.07
2019-05-29T18:23:41.764Z,15.02
2019-05-29T18:26:59.198Z,14.97
2019-05-29T18:30:02.863Z,14.85
2019-05-29T18:33:06.899Z,14.69
2019-05-29T18:36:11.152Z,14.63
2019-05-29T18:39:15.157Z,14.60
2019-05-29T18:42:20.378Z,14.48
2019-05-29T18:45:26.172Z,14.42
2019-05-29T18:48:32.545Z,14.39
2019-05-29T18:51:36.379Z,14.36
2019-05-29T18:54:40.916Z,14.31
2019-05-29T18:57:45.605Z,14.22
2019-05-29T19:00:49.658Z,14.15
2019-05-29T19:03:53.926Z,14.04
2019-05-29T19:06:58.470Z,13.94
2019-05-29T19:10:06.275Z,13.84
2019-05-29T19:13:08.285Z,13.78
2019-05-29T19:16:13.083Z,13.68
2019-05-29T19:19:16.954Z,13.60
2019-05-29T19:22:22.250Z,13.51
2019-05-29T19:25:26.840Z,13.42
2019-05-29T19:28:30.878Z,13.34
2019-05-29T19:31:34.820Z,13.25
2019-05-29T19:34:39.131Z,13.16
2019-05-29T19:37:43.281Z,13.09
2019-05-29T19:40:47.400Z,12.99
2019-05-29T19:43:51.510Z,12.90
2019-05-29T19:46:55.530Z,12.85
2019-05-29T19:49:59.540Z,12.79
2019-05-29T19:53:03.502Z,12.74
2019-05-29T19:56:07.664Z,12.72
2019-05-29T19:59:11.786Z,12.64
2019-05-29T20:02:15.875Z,12.56
2019-05-29T20:05:19.958Z,12.52
2019-05-29T20:08:23.971Z,12.44
2019-05-29T20:11:29.358Z,12.39
2019-05-29T20:14:34.086Z,12.36
2019-05-29T20:17:38.726Z,12.29
2019-05-29T20:20:43.280Z,12.23
2019-05-29T20:23:47.604Z,12.16
2019-05-29T20:26:51.627Z,12.08
2019-05-29T20:29:56.247Z,12.05
2019-05-29T20:33:00.162Z,12.01
2019-05-29T20:36:04.446Z,11.95
2019-05-29T20:39:08.681Z,11.86
2019-05-29T20:42:12.711Z,11.78
2019-05-29T20:45:17.852Z,11.72
2019-05-29T20:48:22.557Z,11.70
2019-05-29T20:51:26.590Z,11.64
2019-05-29T20:54:31.596Z,11.59
2019-05-29T20:57:35.926Z,11.54
2019-05-29T21:00:40.480Z,11.50
2019-05-29T21:03:44.796Z,11.48
2019-05-29T21:06:48.817Z,11.46
2019-05-29T21:09:53.021Z,11.46
2019-05-29T21:12:57.329Z,11.43
2019-05-29T21:16:01.342Z,11.39
2019-05-29T21:19:05.364Z,11.36
2019-05-29T21:22:09.388Z,11.34
2019-05-29T21:25:18.572Z,11.28
2019-05-29T21:28:20.345Z,11.23
2019-05-29T21:31:24.598Z,11.19
2019-05-29T21:34:29.116Z,11.09
2019-05-29T21:37:33.361Z,11.00
2019-05-29T21:40:38.284Z,10.91
2019-05-29T21:43:42.746Z,10.87
2019-05-29T21:46:47.275Z,10.82
2019-05-29T21:49:51.583Z,10.80
2019-05-29T21:52:55.633Z,10.79
2019-05-29T21:55:59.920Z,10.75
2019-05-29T21:59:04.506Z,10.67
2019-05-29T22:02:09.108Z,10.62
2019-05-29T22:05:14.239Z,10.62
2019-05-29T22:08:18.957Z,10.57
2019-05-29T22:11:23.036Z,10.50
2019-05-29T22:14:27.380Z,10.45
2019-05-29T22:17:31.342Z,10.42
2019-05-29T22:20:35.461Z,10.43
2019-05-29T22:23:39.741Z,10.41
2019-05-29T22:26:43.879Z,10.40
2019-05-29T22:29:48.300Z,10.35
2019-05-29T22:32:53.287Z,10.30
2019-05-29T22:35:57.550Z,10.28
2019-05-29T22:39:01.867Z,10.27
2019-05-29T22:42:06.020Z,10.31
2019-05-29T22:45:11.420Z,10.37
2019-05-29T22:48:15.426Z,10.39
2019-05-29T22:51:19.490Z,10.36
2019-05-29T22:54:23.462Z,10.29
2019-05-29T22:57:28.015Z,10.21
2019-05-29T23:00:32.029Z,10.16
2019-05-29T23:03:36.651Z,10.06
2019-05-29T23:06:40.663Z,9.98
2019-05-29T23:09:44.668Z,9.92
2019-05-29T23:12:48.608Z,9.84
2019-05-29T23:15:54.401Z,9.81
2019-05-29T23:18:58.754Z,9.76
2019-05-29T23:22:02.939Z,9.71
2019-05-29T23:25:07.465Z,9.66
2019-05-29T23:28:11.480Z,9.64
2019-05-29T23:31:15.421Z,9.73
2019-05-29T23:34:19.672Z,9.84
2019-05-29T23:37:23.676Z,9.92
2019-05-29T23:40:27.700Z,10.04
2019-05-29T23:43:31.785Z,10.14
2019-05-29T23:46:36.144Z,10.19
2019-05-29T23:49:40.843Z,10.25
2019-05-29T23:52:44.872Z,10.31
2019-05-29T23:55:49.114Z,10.33
2019-05-29T23:58:53.627Z,10.31
